Time;durP1;ratioP1;P1;durP2;ratioP2;P2;SDS_P1;SDS_P2;PMS_P1;PMS_P2;Temp;Humidity;BMP_temperature;BMP_pressure;BME280_temperature;BME280_humidity;BME280_pressure;Samples;Min_cycle;Max_cycle;Signal;HPM_P1;HPM_P2
2023/07/12 00:00:47;;;;;;;2.45;2.25;;;20.00;99.90;;;;;;5126205;27;20053;-69
2023/07/12 00:03:13;;;;;;;4.55;3.08;;;20.00;99.90;;;;;;5123140;27;20609;-69
2023/07/12 00:05:40;;;;;;;4.40;3.08;;;19.90;99.90;;;;;;5139939;27;20039;-70
2023/07/12 00:08:15;;;;;;;3.97;2.53;;;19.90;99.90;;;;;;5136022;27;20442;-70
2023/07/12 00:10:41;;;;;;;3.20;2.90;;;19.80;99.90;;;;;;5144297;27;20409;-71
2023/07/12 00:13:08;;;;;;;4.13;2.92;;;19.80;99.90;;;;;;5145016;27;20043;-70
2023/07/12 00:15:35;;;;;;;3.70;2.75;;;19.70;99.90;;;;;;5145644;27;20047;-69
2023/07/12 00:18:01;;;;;;;3.40;2.25;;;19.70;99.90;;;;;;5144479;27;20046;-70
2023/07/12 00:20:33;;;;;;;2.65;2.30;;;19.60;99.90;;;;;;5126698;27;20050;-70
2023/07/12 00:22:59;;;;;;;4.63;2.67;;;19.60;99.90;;;;;;5159029;27;20083;-70
2023/07/12 00:25:29;;;;;;;2.55;2.13;;;19.60;99.90;;;;;;5165091;27;20153;-70
2023/07/12 00:27:55;;;;;;;3.78;1.95;;;19.50;99.90;;;;;;5126627;27;20061;-71
2023/07/12 00:30:26;;;;;;;2.25;2.05;;;19.50;99.90;;;;;;5145215;27;20049;-69
2023/07/12 00:32:54;;;;;;;4.85;2.50;;;19.50;99.90;;;;;;5137969;27;20043;-70
2023/07/12 00:35:24;;;;;;;3.00;1.83;;;19.50;99.90;;;;;;5137300;27;20149;-72
2023/07/12 00:37:52;;;;;;;3.58;2.35;;;19.50;99.90;;;;;;5144536;27;20410;-71
2023/07/12 00:40:55;;;;;;;3.63;2.20;;;19.50;99.90;;;;;;5156556;27;20573;-69
2023/07/12 00:43:25;;;;;;;2.50;2.15;;;19.40;99.90;;;;;;5137464;27;20053;-70
2023/07/12 00:45:53;;;;;;;3.25;2.25;;;19.40;99.90;;;;;;5147933;27;20466;-69
2023/07/12 00:48:19;;;;;;;4.20;3.80;;;19.40;99.90;;;;;;5149350;27;20529;-70
2023/07/12 00:50:47;;;;;;;3.33;2.17;;;19.40;99.90;;;;;;5144336;27;20514;-71
2023/07/12 00:53:21;;;;;;;4.40;2.22;;;19.40;99.90;;;;;;5143434;27;20047;-71
2023/07/12 00:56:01;;;;;;;2.47;2.10;;;19.40;99.90;;;;;;5145096;27;20050;-69
2023/07/12 00:58:43;;;;;;;3.78;2.33;;;19.30;99.90;;;;;;5156654;27;20050;-70
2023/07/12 01:01:11;;;;;;;3.38;2.38;;;19.30;99.90;;;;;;5164301;27;20061;-69
2023/07/12 01:03:38;;;;;;;3.83;2.40;;;19.30;99.90;;;;;;5135702;27;20061;-69
2023/07/12 01:06:08;;;;;;;2.42;2.20;;;19.30;99.90;;;;;;5145413;27;20085;-70
2023/07/12 01:08:35;;;;;;;3.58;2.78;;;19.30;99.90;;;;;;5155311;27;20245;-70
2023/07/12 01:11:03;;;;;;;3.65;2.30;;;19.20;99.90;;;;;;5163157;27;20173;-69
2023/07/12 01:13:31;;;;;;;3.25;2.95;;;19.20;99.90;;;;;;5128508;27;20133;-69
2023/07/12 01:16:00;;;;;;;4.10;2.38;;;19.20;99.90;;;;;;5135393;27;20101;-73
2023/07/12 01:18:26;;;;;;;2.80;2.45;;;19.20;99.90;;;;;;5125324;27;20093;-69
2023/07/12 01:21:14;;;;;;;2.10;1.95;;;19.20;99.90;;;;;;5111279;27;20051;-70
2023/07/12 01:23:41;;;;;;;3.80;2.97;;;19.10;99.90;;;;;;5144318;27;20047;-71
2023/07/12 01:26:25;;;;;;;3.90;2.10;;;19.10;99.90;;;;;;5144845;27;20482;-69
2023/07/12 01:29:00;;;;;;;3.55;2.47;;;18.80;99.90;;;;;;5117508;27;20505;-70
2023/07/12 01:31:27;;;;;;;3.35;2.50;;;19.10;99.90;;;;;;5133266;27;20058;-69
2023/07/12 01:33:53;;;;;;;3.00;2.72;;;19.10;99.90;;;;;;5136024;27;20127;-69
2023/07/12 01:36:20;;;;;;;4.70;2.85;;;19.10;99.90;;;;;;5145269;27;20057;-69
2023/07/12 01:38:47;;;;;;;3.28;2.50;;;19.10;99.90;;;;;;5143112;27;20054;-69
2023/07/12 01:41:13;;;;;;;2.90;2.55;;;19.10;99.90;;;;;;5140271;27;20304;-70
2023/07/12 01:43:39;;;;;;;3.97;2.90;;;19.10;99.90;;;;;;5125122;27;20566;-70
2023/07/12 01:46:05;;;;;;;4.93;2.78;;;19.10;99.90;;;;;;5124617;27;20122;-71
2023/07/12 01:48:31;;;;;;;3.75;2.40;;;19.00;99.90;;;;;;5139053;27;20590;-70
2023/07/12 01:50:57;;;;;;;4.20;3.03;;;19.00;99.90;;;;;;5125582;27;20046;-70
2023/07/12 01:53:23;;;;;;;3.25;2.45;;;19.00;99.90;;;;;;5141089;27;20050;-69
2023/07/12 01:55:49;;;;;;;5.32;2.90;;;19.00;99.90;;;;;;5147413;27;20043;-70
2023/07/12 01:58:15;;;;;;;2.67;2.33;;;18.90;99.90;;;;;;5147834;27;20051;-70
2023/07/12 02:00:40;;;;;;;3.30;2.63;;;19.00;99.90;;;;;;5124338;27;20477;-71
2023/07/12 02:03:06;;;;;;;3.13;2.55;;;18.90;99.90;;;;;;5146310;27;20038;-70
2023/07/12 02:05:32;;;;;;;6.53;2.85;;;18.90;99.90;;;;;;5141801;27;20122;-70
2023/07/12 02:07:59;;;;;;;4.50;2.75;;;18.80;99.90;;;;;;5142117;27;20465;-69
2023/07/12 02:10:25;;;;;;;4.32;2.92;;;18.90;99.90;;;;;;5118175;27;20050;-70
2023/07/12 02:12:51;;;;;;;3.83;2.92;;;18.80;99.90;;;;;;5135069;27;20051;-69
2023/07/12 02:15:17;;;;;;;5.45;2.85;;;18.70;99.90;;;;;;5140768;27;20050;-70
2023/07/12 02:17:43;;;;;;;3.22;2.92;;;18.80;99.90;;;;;;5128585;27;20130;-69
2023/07/12 02:20:10;;;;;;;4.22;3.00;;;18.70;99.90;;;;;;5148509;27;20046;-69
2023/07/12 02:22:38;;;;;;;4.63;3.53;;;18.80;99.90;;;;;;5140195;27;20106;-69
2023/07/12 02:25:05;;;;;;;5.68;3.63;;;18.70;99.90;;;;;;5133391;27;20066;-69
2023/07/12 02:27:31;;;;;;;5.75;3.55;;;18.70;99.90;;;;;;5130869;27;20441;-69
2023/07/12 02:29:57;;;;;;;3.67;3.38;;;18.70;99.90;;;;;;5147578;27;20073;-69
2023/07/12 02:32:23;;;;;;;8.15;4.18;;;18.70;99.90;;;;;;5133424;27;20760;-69
2023/07/12 02:34:49;;;;;;;5.80;4.22;;;18.60;99.90;;;;;;5150196;27;20118;-69
2023/07/12 02:37:16;;;;;;;5.60;3.80;;;18.60;99.90;;;;;;5148116;27;20487;-72
2023/07/12 02:39:43;;;;;;;5.95;3.90;;;18.60;99.90;;;;;;5153227;27;20042;-69
2023/07/12 02:42:09;;;;;;;6.07;4.15;;;18.50;99.90;;;;;;5144906;27;20688;-69
2023/07/12 02:44:36;;;;;;;7.47;3.78;;;18.50;99.90;;;;;;5148895;27;20070;-70
2023/07/12 02:47:02;;;;;;;6.20;3.88;;;18.40;99.90;;;;;;5119691;27;20070;-69
2023/07/12 02:49:28;;;;;;;6.38;3.30;;;18.40;99.90;;;;;;5137556;27;20218;-68
2023/07/12 02:51:54;;;;;;;4.45;2.80;;;18.40;99.90;;;;;;5140261;27;20059;-68
2023/07/12 02:54:19;;;;;;;8.77;3.60;;;18.40;99.90;;;;;;5109426;27;20042;-71
2023/07/12 02:56:45;;;;;;;6.13;3.70;;;18.10;99.90;;;;;;5135553;27;20763;-71
2023/07/12 02:59:11;;;;;;;6.90;3.00;;;18.30;99.90;;;;;;5119974;27;20050;-70
2023/07/12 03:01:36;;;;;;;4.40;3.47;;;18.30;99.90;;;;;;5131957;27;20051;-68
2023/07/12 03:04:02;;;;;;;4.68;2.88;;;18.20;99.90;;;;;;5140738;27;20049;-70
2023/07/12 03:06:28;;;;;;;5.43;3.80;;;18.30;99.90;;;;;;5140939;27;20078;-69
2023/07/12 03:08:53;;;;;;;6.63;3.22;;;18.30;99.90;;;;;;5136630;27;20133;-68
2023/07/12 03:11:19;;;;;;;5.85;3.80;;;18.20;99.90;;;;;;5122457;27;20054;-69
2023/07/12 03:13:46;;;;;;;7.35;3.92;;;18.20;99.90;;;;;;5125040;27;20491;-71
2023/07/12 03:16:11;;;;;;;5.20;3.30;;;18.30;99.90;;;;;;5135403;27;20111;-70
2023/07/12 03:18:37;;;;;;;7.43;4.25;;;18.30;99.90;;;;;;5149170;27;20111;-70
2023/07/12 03:21:05;;;;;;;8.07;3.75;;;18.20;99.90;;;;;;5136145;27;20505;-71
2023/07/12 03:23:32;;;;;;;4.80;3.92;;;18.20;99.90;;;;;;5130236;27;20692;-69
2023/07/12 03:25:58;;;;;;;8.32;4.07;;;18.20;99.90;;;;;;5139270;27;20174;-70
2023/07/12 03:28:25;;;;;;;7.80;4.25;;;18.10;99.90;;;;;;5123445;27;20462;-70
2023/07/12 03:30:59;;;;;;;6.90;3.78;;;18.10;99.90;;;;;;5145259;27;20503;-69
2023/07/12 03:33:25;;;;;;;3.50;2.90;;;18.10;99.90;;;;;;5140659;27;20049;-71
2023/07/12 03:35:51;;;;;;;5.68;3.90;;;18.00;99.90;;;;;;5139317;27;20054;-70
2023/07/12 03:38:16;;;;;;;10.27;4.72;;;18.00;99.90;;;;;;5144443;27;20145;-69
2023/07/12 03:40:45;;;;;;;9.48;4.47;;;18.10;99.90;;;;;;5156041;27;20074;-70
2023/07/12 03:43:11;;;;;;;8.55;3.90;;;18.00;99.90;;;;;;5152880;27;20864;-70
2023/07/12 03:45:36;;;;;;;7.10;4.53;;;18.00;99.90;;;;;;5154602;27;20052;-71
2023/07/12 03:48:02;;;;;;;11.07;3.85;;;17.90;99.90;;;;;;5150788;27;20050;-70
2023/07/12 03:50:28;;;;;;;7.07;3.75;;;17.90;99.90;;;;;;5123706;27;20078;-69
2023/07/12 03:52:54;;;;;;;6.63;4.25;;;17.90;99.90;;;;;;5148812;27;20047;-69
2023/07/12 03:55:19;;;;;;;9.02;3.80;;;17.90;99.90;;;;;;5138925;27;20760;-69
2023/07/12 03:57:45;;;;;;;13.57;4.03;;;17.90;99.90;;;;;;5143377;27;20050;-71
2023/07/12 04:00:12;;;;;;;8.32;4.15;;;17.90;99.90;;;;;;5136868;27;20051;-70
2023/07/12 04:02:40;;;;;;;9.18;4.25;;;17.90;99.90;;;;;;5150120;27;20046;-71
2023/07/12 04:05:06;;;;;;;7.20;3.83;;;17.90;99.90;;;;;;5152504;27;20078;-70
2023/07/12 04:07:32;;;;;;;8.52;4.10;;;17.90;99.90;;;;;;5148085;27;20082;-70
2023/07/12 04:09:57;;;;;;;9.57;4.47;;;17.90;99.90;;;;;;5124932;27;20275;-69
2023/07/12 04:12:23;;;;;;;6.93;3.70;;;17.90;99.90;;;;;;5141356;27;20486;-70
2023/07/12 04:14:49;;;;;;;9.30;4.80;;;17.90;99.90;;;;;;5141979;27;20039;-70
2023/07/12 04:17:15;;;;;;;8.25;4.20;;;17.90;99.90;;;;;;5152378;27;20053;-70
2023/07/12 04:19:41;;;;;;;7.82;4.82;;;17.90;99.90;;;;;;5154664;27;20038;-71
2023/07/12 04:22:07;;;;;;;7.63;4.78;;;17.90;99.90;;;;;;5148328;27;20157;-70
2023/07/12 04:24:33;;;;;;;12.07;4.57;;;17.90;99.90;;;;;;5153534;27;20050;-71
2023/07/12 04:26:59;;;;;;;7.30;4.32;;;17.90;99.90;;;;;;5123141;27;20047;-69
2023/07/12 04:29:28;;;;;;;9.80;5.32;;;17.90;99.90;;;;;;5152133;27;20803;-70
2023/07/12 04:31:54;;;;;;;10.82;5.00;;;17.90;99.90;;;;;;5153939;27;20038;-70
2023/07/12 04:34:20;;;;;;;6.95;4.10;;;17.80;99.90;;;;;;5150015;27;20095;-70
2023/07/12 04:36:46;;;;;;;11.15;4.38;;;17.90;99.90;;;;;;5141785;27;20703;-70
2023/07/12 04:39:11;;;;;;;8.88;4.22;;;17.90;99.90;;;;;;5142356;27;20422;-70
2023/07/12 04:41:37;;;;;;;8.15;4.40;;;17.90;99.90;;;;;;5133412;27;20050;-70
2023/07/12 04:44:03;;;;;;;9.27;5.50;;;17.90;99.90;;;;;;5129092;27;20046;-72
2023/07/12 04:46:29;;;;;;;7.93;4.57;;;18.00;99.90;;;;;;5142330;27;20050;-70
2023/07/12 04:48:54;;;;;;;7.78;4.90;;;17.90;99.90;;;;;;5146845;27;20046;-70
2023/07/12 04:51:20;;;;;;;5.75;4.18;;;18.00;99.90;;;;;;5137075;27;20047;-70
2023/07/12 04:53:49;;;;;;;7.53;4.70;;;18.00;99.90;;;;;;5143924;27;20141;-71
2023/07/12 04:56:15;;;;;;;11.35;5.20;;;17.90;99.90;;;;;;5144562;27;20042;-71
2023/07/12 04:58:42;;;;;;;8.65;4.43;;;17.90;99.90;;;;;;5143492;27;20050;-70
2023/07/12 05:01:09;;;;;;;12.00;5.97;;;17.90;99.90;;;;;;5141821;27;20050;-71
2023/07/12 05:03:35;;;;;;;9.30;4.35;;;17.90;99.90;;;;;;5120894;27;20472;-71
2023/07/12 05:06:01;;;;;;;5.75;3.83;;;18.00;99.90;;;;;;5139612;27;20050;-70
2023/07/12 05:08:27;;;;;;;8.98;4.82;;;18.00;99.90;;;;;;5140198;27;20483;-70
2023/07/12 05:10:58;;;;;;;8.43;4.80;;;18.00;99.90;;;;;;5142709;27;20786;-70
2023/07/12 05:13:23;;;;;;;10.63;5.35;;;18.00;99.90;;;;;;5143487;27;20089;-72
2023/07/12 05:15:51;;;;;;;9.20;4.38;;;18.10;99.90;;;;;;5101914;27;20118;-70
2023/07/12 05:18:17;;;;;;;6.50;3.90;;;18.10;99.90;;;;;;5133602;27;20072;-70
2023/07/12 05:20:43;;;;;;;7.18;4.05;;;18.10;99.90;;;;;;5139663;27;20137;-70
2023/07/12 05:23:09;;;;;;;8.40;5.47;;;18.10;99.90;;;;;;5156939;27;20046;-70
2023/07/12 05:25:34;;;;;;;5.88;5.00;;;18.10;99.90;;;;;;5146564;27;20059;-70
2023/07/12 05:28:03;;;;;;;9.88;5.28;;;18.20;99.90;;;;;;5152519;27;20482;-71
2023/07/12 05:30:31;;;;;;;9.27;4.07;;;18.20;99.90;;;;;;5147426;27;20061;-73
2023/07/12 05:32:58;;;;;;;8.15;4.50;;;18.30;99.90;;;;;;5133946;27;20451;-70
2023/07/12 05:35:24;;;;;;;6.75;4.50;;;18.30;99.90;;;;;;5141800;27;20118;-70
2023/07/12 05:37:50;;;;;;;10.32;4.80;;;18.40;99.90;;;;;;5150198;27;20046;-70
2023/07/12 05:40:16;;;;;;;6.85;5.15;;;18.50;99.90;;;;;;5151892;27;20058;-69
2023/07/12 05:42:42;;;;;;;7.55;5.25;;;18.60;99.90;;;;;;5152566;27;20043;-71
2023/07/12 05:45:14;;;;;;;8.50;4.65;;;18.60;99.90;;;;;;5134797;27;20046;-71
2023/07/12 05:47:42;;;;;;;9.45;4.15;;;18.70;99.90;;;;;;5140597;27;20503;-70
2023/07/12 05:50:11;;;;;;;7.40;4.78;;;18.80;99.90;;;;;;5142969;27;20091;-70
2023/07/12 05:52:37;;;;;;;10.35;4.60;;;18.80;99.90;;;;;;5152520;27;20049;-70
2023/07/12 05:55:06;;;;;;;17.15;5.18;;;18.80;99.90;;;;;;5139499;27;20099;-72
2023/07/12 05:57:32;;;;;;;6.10;4.93;;;18.80;99.90;;;;;;5118549;27;20880;-72
2023/07/12 05:59:59;;;;;;;9.07;4.00;;;18.80;99.90;;;;;;5129968;27;20054;-70
2023/07/12 06:02:24;;;;;;;12.25;5.00;;;18.60;99.90;;;;;;5124452;27;20050;-71
2023/07/12 06:04:51;;;;;;;10.65;5.13;;;18.50;99.90;;;;;;5139371;27;20046;-70
2023/07/12 06:07:17;;;;;;;10.63;4.78;;;18.50;99.90;;;;;;5132608;27;20050;-71
2023/07/12 06:09:42;;;;;;;7.78;4.45;;;18.50;99.90;;;;;;5142896;27;20514;-70
2023/07/12 06:12:09;;;;;;;8.30;4.90;;;18.60;99.90;;;;;;5121130;27;20047;-69
2023/07/12 06:14:35;;;;;;;9.75;5.28;;;18.70;99.90;;;;;;5140028;27;20194;-71
2023/07/12 06:17:01;;;;;;;6.95;5.05;;;18.80;99.90;;;;;;5140009;27;20595;-70
2023/07/12 06:19:27;;;;;;;10.20;4.68;;;19.00;99.90;;;;;;5139585;27;20048;-72
2023/07/12 06:21:52;;;;;;;9.38;4.93;;;19.30;99.90;;;;;;5129438;27;20058;-69
2023/07/12 06:24:18;;;;;;;9.85;4.88;;;19.60;99.90;;;;;;5139903;27;20065;-70
2023/07/12 06:26:44;;;;;;;8.60;5.07;;;19.70;99.90;;;;;;5147023;27;20051;-70
2023/07/12 06:29:10;;;;;;;12.23;6.40;;;19.90;99.90;;;;;;5147337;27;20035;-69
2023/07/12 06:31:36;;;;;;;11.75;6.18;;;20.00;99.90;;;;;;5112022;27;20078;-70
2023/07/12 06:34:04;;;;;;;9.10;6.28;;;20.10;99.90;;;;;;5121392;27;20158;-70
2023/07/12 06:36:32;;;;;;;10.30;5.40;;;20.10;99.90;;;;;;5137981;27;20543;-71
2023/07/12 06:38:58;;;;;;;10.80;5.35;;;20.00;99.90;;;;;;5138008;27;20608;-72
2023/07/12 06:41:24;;;;;;;9.98;5.80;;;20.00;99.90;;;;;;5137112;27;20575;-69
2023/07/12 06:43:49;;;;;;;8.80;5.00;;;20.10;99.90;;;;;;5140525;27;20884;-72
2023/07/12 06:46:16;;;;;;;8.45;4.95;;;20.30;99.90;;;;;;5140092;27;20464;-69
2023/07/12 06:48:41;;;;;;;9.05;5.82;;;20.40;99.90;;;;;;5133453;27;20058;-69
2023/07/12 06:51:07;;;;;;;8.75;4.85;;;20.30;99.90;;;;;;5135196;27;20848;-70
2023/07/12 06:53:33;;;;;;;9.80;4.50;;;20.30;99.90;;;;;;5136423;27;20050;-70
2023/07/12 06:55:59;;;;;;;7.82;4.75;;;20.80;99.90;;;;;;5128020;27;20057;-71
2023/07/12 06:58:25;;;;;;;11.90;4.35;;;21.50;99.90;;;;;;5139133;27;20039;-72
2023/07/12 07:00:51;;;;;;;6.30;3.95;;;22.20;99.90;;;;;;5115139;27;20071;-72
2023/07/12 07:03:17;;;;;;;10.13;4.70;;;22.80;99.90;;;;;;5126218;27;20078;-72
2023/07/12 07:05:45;;;;;;;6.28;3.80;;;23.20;99.90;;;;;;5144138;27;20073;-72
2023/07/12 07:08:13;;;;;;;8.00;3.70;;;23.30;99.90;;;;;;5144987;27;20046;-73
2023/07/12 07:10:39;;;;;;;7.72;4.30;;;23.50;99.90;;;;;;5140474;27;20121;-72
2023/07/12 07:13:04;;;;;;;6.05;3.22;;;23.80;99.90;;;;;;5144647;27;20411;-72
2023/07/12 07:15:30;;;;;;;7.55;3.83;;;23.40;99.90;;;;;;5122983;27;20046;-72
2023/07/12 07:17:57;;;;;;;6.25;3.97;;;23.60;99.90;;;;;;5120424;27;20053;-72
2023/07/12 07:20:22;;;;;;;5.25;3.75;;;23.70;99.90;;;;;;5129356;27;20602;-73
2023/07/12 07:22:48;;;;;;;7.57;3.35;;;23.80;99.90;;;;;;5138843;27;20039;-72
2023/07/12 07:25:14;;;;;;;8.30;3.30;;;23.60;99.90;;;;;;5106294;27;20145;-72
2023/07/12 07:27:41;;;;;;;7.20;4.05;;;24.10;99.90;;;;;;5138801;27;20070;-72
2023/07/12 07:30:07;;;;;;;7.57;4.45;;;24.50;99.90;;;;;;5142294;27;20129;-73
2023/07/12 07:32:33;;;;;;;6.82;3.60;;;24.20;99.90;;;;;;5131325;27;20082;-73
2023/07/12 07:34:59;;;;;;;5.78;3.17;;;23.80;99.90;;;;;;5131332;27;20776;-73
2023/07/12 07:37:25;;;;;;;10.23;3.97;;;24.40;99.90;;;;;;5135307;27;20070;-74
2023/07/12 07:39:51;;;;;;;7.47;3.75;;;25.00;99.90;;;;;;5137681;27;20129;-73
2023/07/12 07:42:16;;;;;;;8.55;3.92;;;24.40;99.90;;;;;;5148549;27;20050;-73
2023/07/12 07:44:42;;;;;;;7.28;3.95;;;23.80;99.90;;;;;;5134852;27;20562;-72
2023/07/12 07:47:08;;;;;;;8.93;4.03;;;23.10;99.90;;;;;;5112621;27;20502;-70
2023/07/12 07:49:34;;;;;;;5.43;3.42;;;22.60;99.90;;;;;;5120221;27;20046;-70
2023/07/12 07:52:02;;;;;;;7.13;4.13;;;22.80;99.90;;;;;;5138596;27;20055;-71
2023/07/12 07:54:28;;;;;;;6.28;3.00;;;22.70;99.90;;;;;;5105838;27;20046;-69
2023/07/12 07:56:54;;;;;;;7.22;3.58;;;23.30;99.90;;;;;;5150381;27;20053;-71
2023/07/12 07:59:19;;;;;;;6.32;3.45;;;23.30;99.90;;;;;;5157081;27;20054;-70
2023/07/12 08:01:45;;;;;;;10.93;4.28;;;23.10;99.90;;;;;;5142539;27;20784;-72
2023/07/12 08:04:11;;;;;;;11.65;4.45;;;22.50;99.90;;;;;;5108129;27;20566;-71
2023/07/12 08:06:38;;;;;;;9.02;4.43;;;22.10;99.90;;;;;;5141352;27;20050;-73
2023/07/12 08:09:06;;;;;;;12.95;4.43;;;21.70;99.90;;;;;;5120680;27;20084;-71
2023/07/12 08:11:31;;;;;;;7.93;4.50;;;21.40;99.90;;;;;;5148411;27;20785;-70
2023/07/12 08:13:57;;;;;;;8.70;5.03;;;21.20;99.90;;;;;;5155394;27;20058;-70
2023/07/12 08:16:26;;;;;;;8.68;4.20;;;21.00;99.90;;;;;;5141790;27;20082;-71
2023/07/12 08:18:53;;;;;;;9.80;4.65;;;20.90;99.90;;;;;;5140825;27;20042;-71
2023/07/12 08:21:19;;;;;;;10.38;4.22;;;20.80;99.90;;;;;;5138125;27;20055;-72
2023/07/12 08:23:45;;;;;;;9.43;5.18;;;20.70;99.90;;;;;;5149603;27;20070;-71
2023/07/12 08:26:11;;;;;;;6.97;4.28;;;20.50;99.90;;;;;;5148354;27;20063;-71
2023/07/12 08:28:37;;;;;;;9.88;5.07;;;20.40;99.90;;;;;;5144111;27;20333;-71
2023/07/12 08:31:03;;;;;;;14.52;6.57;;;20.20;99.90;;;;;;5142741;27;20568;-73
2023/07/12 08:33:28;;;;;;;8.02;4.18;;;20.10;99.90;;;;;;5143152;27;20043;-71
2023/07/12 08:35:54;;;;;;;6.95;4.43;;;19.70;99.90;;;;;;5142774;27;20057;-72
2023/07/12 08:38:20;;;;;;;8.07;5.40;;;19.50;99.90;;;;;;5154256;27;20051;-70
2023/07/12 08:40:49;;;;;;;8.48;4.72;;;19.50;99.90;;;;;;5153554;27;20052;-71
2023/07/12 08:43:20;;;;;;;10.00;5.43;;;19.70;99.90;;;;;;5151732;27;20043;-71
2023/07/12 08:45:49;;;;;;;9.30;4.63;;;20.00;99.90;;;;;;5116711;27;20049;-70
2023/07/12 08:48:19;;;;;;;7.03;4.43;;;20.30;99.90;;;;;;5141909;27;20050;-71
2023/07/12 08:50:46;;;;;;;9.07;5.90;;;20.50;99.90;;;;;;5140843;27;20058;-70
2023/07/12 08:53:17;;;;;;;9.82;5.78;;;20.50;99.90;;;;;;5140593;27;20069;-69
2023/07/12 08:55:43;;;;;;;8.73;6.07;;;20.70;99.90;;;;;;5096294;27;20054;-70
2023/07/12 08:58:33;;;;;;;11.45;5.57;;;20.50;99.90;;;;;;5135229;27;20047;-70
2023/07/12 09:01:05;;;;;;;12.07;5.82;;;20.40;99.90;;;;;;5143822;27;20073;-70
2023/07/12 09:03:31;;;;;;;14.95;6.35;;;20.20;99.90;;;;;;5126082;27;20042;-70
2023/07/12 09:05:57;;;;;;;15.30;7.32;;;20.10;99.90;;;;;;5142278;27;20049;-72
2023/07/12 09:08:38;;;;;;;15.80;6.57;;;20.00;99.90;;;;;;5141350;27;20047;-71
2023/07/12 09:11:16;;;;;;;9.30;6.28;;;19.90;99.90;;;;;;5127936;27;20051;-74
2023/07/12 09:13:44;;;;;;;10.32;5.90;;;20.10;99.90;;;;;;5129847;27;20046;-71
2023/07/12 09:16:23;;;;;;;12.80;6.03;;;20.90;99.90;;;;;;5131945;27;20460;-70
2023/07/12 09:18:52;;;;;;;12.30;5.65;;;21.40;99.90;;;;;;5132929;27;20039;-69
2023/07/12 09:21:24;;;;;;;9.00;5.82;;;22.20;99.90;;;;;;5123057;27;20051;-71
2023/07/12 09:23:53;;;;;;;13.30;5.17;;;22.30;99.90;;;;;;5146124;27;20039;-71
2023/07/12 09:26:28;;;;;;;9.35;5.18;;;22.00;99.90;;;;;;5119079;27;20051;-71
2023/07/12 09:29:18;;;;;;;7.07;5.38;;;21.60;99.90;;;;;;5135660;27;20078;-72
2023/07/12 09:31:45;;;;;;;11.32;5.72;;;21.20;99.90;;;;;;5132156;27;20169;-69
2023/07/12 09:34:24;;;;;;;7.03;4.85;;;20.80;99.90;;;;;;5150249;27;20053;-71
2023/07/12 09:36:58;;;;;;;8.88;5.65;;;20.80;99.90;;;;;;5142618;27;20043;-71
2023/07/12 09:39:25;;;;;;;9.10;4.82;;;20.70;99.90;;;;;;5136725;27;20046;-70
2023/07/12 09:41:58;;;;;;;10.00;4.22;;;20.70;99.90;;;;;;5149622;27;20042;-70
2023/07/12 09:44:25;;;;;;;;;;;20.70;99.90;;;;;;5147716;27;20057;-70
2023/07/12 09:46:56;;;;;;;6.78;3.72;;;20.60;99.90;;;;;;5131516;27;19974;-71
2023/07/12 09:49:25;;;;;;;4.35;3.55;;;20.70;99.90;;;;;;5149484;27;20049;-70
2023/07/12 09:52:17;;;;;;;4.25;3.17;;;21.00;99.90;;;;;;5149371;27;20556;-71
2023/07/12 09:55:06;;;;;;;6.60;4.00;;;21.40;99.90;;;;;;5144755;27;20046;-70
2023/07/12 09:58:29;;;;;;;6.05;3.70;;;22.40;99.90;;;;;;5150089;27;20463;-72
2023/07/12 10:01:34;;;;;;;6.90;3.75;;;23.00;99.90;;;;;;5044890;28;20049;-70
2023/07/12 10:04:21;;;;;;;5.82;3.25;;;22.90;99.90;;;;;;5024053;28;20057;-73
2023/07/12 10:06:50;;;;;;;8.77;3.70;;;22.50;99.90;;;;;;5147686;27;20086;-71
2023/07/12 10:09:33;;;;;;;4.00;3.55;;;22.00;99.90;;;;;;5143265;27;20050;-70
2023/07/12 10:12:07;;;;;;;6.13;2.95;;;22.00;99.90;;;;;;5141740;27;20050;-70
2023/07/12 10:14:40;;;;;;;5.72;2.88;;;22.20;99.90;;;;;;5141176;27;20045;-70
2023/07/12 10:17:13;;;;;;;;;;;22.40;99.90;;;;;;5143972;27;20107;-70
2023/07/12 10:19:41;;;;;;;5.63;2.65;;;22.90;99.90;;;;;;5138098;27;19979;-70
2023/07/12 10:22:19;;;;;;;6.28;2.55;;;23.70;99.90;;;;;;5145092;27;20079;-69
2023/07/12 10:24:50;;;;;;;7.20;3.03;;;24.20;99.90;;;;;;5137638;27;20061;-71
2023/07/12 10:27:22;;;;;;;7.88;3.13;;;24.50;99.90;;;;;;5147365;27;20149;-70
2023/07/12 10:29:52;;;;;;;4.43;2.85;;;24.30;99.90;;;;;;5136487;27;20061;-70
2023/07/12 10:32:25;;;;;;;6.28;2.60;;;23.90;99.90;;;;;;5109914;27;20061;-71
2023/07/12 10:35:31;;;;;;;5.35;3.15;;;23.50;99.90;;;;;;5149806;27;20050;-70
2023/07/12 10:38:01;;;;;;;4.35;2.70;;;23.50;99.90;;;;;;5134079;27;20062;-71
2023/07/12 10:40:37;;;;;;;6.43;2.90;;;24.10;99.90;;;;;;5149118;27;20073;-73
2023/07/12 10:43:07;;;;;;;3.95;1.85;;;24.50;99.90;;;;;;5150159;27;20047;-71
2023/07/12 10:45:36;;;;;;;5.88;2.65;;;25.00;99.90;;;;;;5146698;27;20406;-71
2023/07/12 10:48:03;;;;;;;3.65;2.28;;;25.30;99.90;;;;;;5136908;27;20848;-70
2023/07/12 10:50:47;;;;;;;3.30;2.28;;;25.70;99.90;;;;;;5156011;27;20755;-69
2023/07/12 10:53:22;;;;;;;3.08;1.80;;;25.80;99.90;;;;;;5148753;27;20343;-70
2023/07/12 10:56:17;;;;;;;3.40;1.90;;;25.50;99.90;;;;;;5139227;27;20106;-71
2023/07/12 10:58:57;;;;;;;4.28;2.05;;;24.50;98.30;;;;;;5133042;27;20053;-70
2023/07/12 11:01:35;;;;;;;4.93;1.77;;;24.70;99.90;;;;;;5141862;27;20047;-72
2023/07/12 11:04:28;;;;;;;1.90;1.70;;;24.70;98.90;;;;;;5147842;27;20042;-71
2023/07/12 11:07:19;;;;;;;5.20;1.83;;;25.10;99.90;;;;;;5139505;27;20139;-70
2023/07/12 11:09:48;;;;;;;3.80;1.80;;;25.20;99.90;;;;;;5135277;27;20177;-71
2023/07/12 11:12:29;;;;;;;4.93;1.90;;;25.30;99.90;;;;;;5150164;27;20050;-72
2023/07/12 11:15:06;;;;;;;2.42;1.50;;;25.30;99.90;;;;;;5140714;27;20205;-72
2023/07/12 11:17:50;;;;;;;2.05;1.52;;;25.30;98.20;;;;;;5143969;27;20042;-72
2023/07/12 11:20:30;;;;;;;4.28;1.90;;;25.10;96.70;;;;;;5125664;27;20050;-71
2023/07/12 11:23:20;;;;;;;7.70;1.90;;;25.10;99.10;;;;;;5141685;27;20046;-74
2023/07/12 11:25:49;;;;;;;2.10;1.85;;;25.10;98.80;;;;;;5141593;27;20054;-71
2023/07/12 11:28:28;;;;;;;5.60;2.38;;;25.20;99.70;;;;;;5140897;27;20077;-71
2023/07/12 11:31:11;;;;;;;5.45;2.47;;;25.10;98.60;;;;;;5135341;27;20051;-70
2023/07/12 11:33:37;;;;;;;3.50;2.20;;;24.70;97.20;;;;;;5136108;27;20438;-71
2023/07/12 11:36:08;;;;;;;3.22;2.28;;;24.40;98.10;;;;;;5145147;27;20038;-71
2023/07/12 11:38:36;;;;;;;8.80;2.65;;;24.50;98.80;;;;;;5124029;27;20050;-70
2023/07/12 11:41:06;;;;;;;4.85;2.10;;;24.70;99.00;;;;;;5137623;27;20047;-71
2023/07/12 11:43:37;;;;;;;6.60;2.80;;;24.80;98.40;;;;;;5134360;27;20050;-72
2023/07/12 11:46:13;;;;;;;5.05;2.40;;;24.90;98.50;;;;;;5143101;27;20046;-72
2023/07/12 11:48:42;;;;;;;3.72;2.10;;;24.50;97.00;;;;;;5148542;27;20047;-70
2023/07/12 11:51:18;;;;;;;2.45;1.30;;;24.20;96.60;;;;;;5151106;27;20086;-71
2023/07/12 11:53:57;;;;;;;2.03;1.83;;;24.40;95.50;;;;;;5131364;27;20047;-73
2023/07/12 11:56:24;;;;;;;2.05;1.33;;;24.30;96.20;;;;;;5141639;27;20041;-74
2023/07/12 11:58:50;;;;;;;1.88;1.67;;;24.60;97.70;;;;;;5146408;27;20046;-70
2023/07/12 12:01:17;;;;;;;3.90;1.58;;;24.40;96.20;;;;;;5151537;27;20064;-71
2023/07/12 12:03:48;;;;;;;2.08;1.73;;;24.60;97.10;;;;;;5149602;27;20101;-72
2023/07/12 12:06:14;;;;;;;1.58;1.20;;;24.70;96.10;;;;;;5142548;27;20049;-72
2023/07/12 12:08:48;;;;;;;7.25;2.17;;;24.60;96.40;;;;;;5143175;27;20043;-71
2023/07/12 12:11:13;;;;;;;2.22;1.60;;;24.50;95.80;;;;;;5134539;27;20578;-70
2023/07/12 12:13:53;;;;;;;1.90;1.45;;;24.50;95.60;;;;;;5140885;27;20045;-71
2023/07/12 12:16:22;;;;;;;2.28;1.70;;;24.70;96.30;;;;;;5147007;27;20061;-71
2023/07/12 12:18:59;;;;;;;2.75;1.45;;;24.70;96.20;;;;;;5149237;27;20581;-72
2023/07/12 12:21:26;;;;;;;1.90;1.40;;;24.50;93.90;;;;;;5142214;27;20038;-71
2023/07/12 12:24:05;;;;;;;4.45;1.50;;;24.30;94.90;;;;;;5140840;27;20092;-70
2023/07/12 12:26:37;;;;;;;3.30;1.60;;;24.40;94.70;;;;;;5120414;27;20047;-73
2023/07/12 12:29:14;;;;;;;3.58;1.90;;;24.30;94.40;;;;;;5121600;27;20479;-72
2023/07/12 12:32:03;;;;;;;1.83;1.73;;;24.30;94.80;;;;;;5131551;27;20035;-72
2023/07/12 12:34:43;;;;;;;1.88;1.45;;;24.40;93.80;;;;;;5131609;27;20135;-70
2023/07/12 12:37:15;;;;;;;4.82;2.17;;;24.70;95.10;;;;;;5110558;27;20379;-71
2023/07/12 12:39:41;;;;;;;3.33;1.60;;;24.70;95.00;;;;;;5131678;27;20146;-70
2023/07/12 12:42:18;;;;;;;2.25;1.33;;;24.60;95.00;;;;;;5118949;27;20047;-70
2023/07/12 12:44:44;;;;;;;1.58;1.38;;;24.30;94.30;;;;;;5120462;27;20551;-71
2023/07/12 12:47:21;;;;;;;3.30;1.63;;;24.50;95.70;;;;;;5127254;27;20055;-70
2023/07/12 12:49:47;;;;;;;2.55;1.73;;;24.50;93.80;;;;;;5129313;27;20132;-70
2023/07/12 12:52:24;;;;;;;3.47;2.00;;;24.50;95.10;;;;;;5120029;27;20040;-72
2023/07/12 12:54:50;;;;;;;5.57;1.50;;;24.50;94.70;;;;;;5119532;27;20035;-71
2023/07/12 12:57:16;;;;;;;3.30;1.13;;;24.60;95.40;;;;;;5107546;27;20051;-69